Sheridan, WY

2:38 AM MST on February 11, 2016 (GMT -0700)
South Sheridan | | Change Station
CLOSE
Current Station
Personal Weather Station
Location: Sheridan, WY
Elevation: 3770 ft
Nearby Weather Stations

Elev 3770 ft 44.79 °N, 106.95 °W | Updated 6 seconds ago

Partly Cloudy
Partly Cloudy
30.9 °F
Feels Like 31 °F
N
0.0
Wind Variable Wind from South
Gusts 0.0 mph

Today
High -- | Low -- °F
--% Chance of Precip.
Yesterday
High -- | Low -- °F
Precip. -- in
Pressure 30.03 in
Visibility -9999.0 miles
Clouds Few 12000 ft
Windchill 31 °F
Dew Point 27 °F
Humidity 84%
Rainfall 0.00 in
Snow Depth Not available.
7:14 AM 5:30 PM
Waxing Crescent, 10% visible
METAR KSHR 110853Z AUTO 21003KT FEW120 02/M03 A3001 RMK AO2 SLP168 T00221033 58017 $
Pressure 30.03 in
Visibility -9999.0 miles
Clouds Few 12000 ft
Windchill 31 °F
Dew Point 27 °F
Humidity 84%
Rainfall 0.00 in
Snow Depth Not available.
7:14 AM 5:30 PM
Waxing Crescent, 10% visible
METAR KSHR 110853Z AUTO 21003KT FEW120 02/M03 A3001 RMK AO2 SLP168 T00221033 58017 $

10-Day Weather Forecast

Almanac

Astronomy

Feb. 11, 2016 Rise Set
Actual Time
Civil Twilight
Nautical Twilight
Astronomical Twilight
Moon
Length of Visible Light
Length of Day
Tomorrow will be .
, % of the Moon is Illuminated

Today's Extremes

State Highs State Lows

Community

WunderPhotos

Upload Photos

1,892,030 photos uploaded!

WunderBlog® & News

Nearby

Air Quality

  Air Quality AQ Index Pollutant
Not available.

Snow Depth

Station Depth Elevation

Earthquake Activity

City Distance Mag. Time & Date
Minimum magnitude displayed is 2.5.

Coastal Water Temperatures

Place Temperature

Stations

Nearby Weather Stations

Station Location Temp. Windchill Dew Point Humidity Wind Precip. Elev Updated Type
                   

Watches & Warnings

There are currently no watches in effect.